Time;durP1;ratioP1;P1;durP2;ratioP2;P2;SDS_P1;SDS_P2;PMS_P1;PMS_P2;Temp;Humidity;BMP_temperature;BMP_pressure;BME280_temperature;BME280_humidity;BME280_pressure;Samples;Min_cycle;Max_cycle;Signal;HPM_P1;HPM_P2
2023/10/13 00:01:59;;;;;;;12.15;3.17;;;19.70;96.30;;;;;;5092464;28;20062;-81
2023/10/13 00:04:38;;;;;;;6.40;3.03;;;19.70;96.20;;;;;;5093255;28;20032;-81
2023/10/13 00:07:05;;;;;;;9.57;3.30;;;19.70;96.20;;;;;;5093346;28;20020;-81
2023/10/13 00:09:36;;;;;;;6.60;2.85;;;19.70;96.00;;;;;;5092636;28;20381;-81
2023/10/13 00:12:13;;;;;;;10.15;3.45;;;19.70;95.80;;;;;;5092995;28;20024;-82
2023/10/13 00:14:41;;;;;;;12.90;3.17;;;19.70;95.70;;;;;;5093727;28;20090;-81
2023/10/13 00:17:07;;;;;;;7.43;2.50;;;19.70;95.60;;;;;;5091837;28;20028;-81
2023/10/13 00:19:44;;;;;;;5.43;2.85;;;19.70;95.60;;;;;;5092532;28;20461;-81
2023/10/13 00:22:10;;;;;;;9.82;2.80;;;19.70;95.70;;;;;;5091991;28;20113;-81
2023/10/13 00:24:43;;;;;;;6.43;3.00;;;19.70;95.50;;;;;;5093185;28;20078;-81
2023/10/13 00:27:41;;;;;;;9.25;2.63;;;19.70;95.40;;;;;;5095944;28;20074;-81
2023/10/13 00:32:54;;;;;;;5.28;2.50;;;19.70;95.40;;;;;;5097542;28;20028;-81
2023/10/13 00:35:28;;;;;;;10.15;3.22;;;19.70;95.40;;;;;;5095662;28;20413;-81
2023/10/13 00:37:54;;;;;;;6.88;3.20;;;19.70;95.40;;;;;;5097343;28;20020;-81
2023/10/13 00:43:03;;;;;;;6.63;2.97;;;19.70;95.20;;;;;;5097322;28;20423;-81
2023/10/13 00:45:33;;;;;;;9.95;2.90;;;19.70;95.20;;;;;;5096196;28;20032;-81
2023/10/13 00:48:01;;;;;;;7.25;2.55;;;19.70;95.10;;;;;;5096300;28;20123;-81
2023/10/13 00:50:27;;;;;;;6.85;2.70;;;19.70;95.20;;;;;;5095556;28;20049;-81
2023/10/13 00:52:54;;;;;;;8.00;3.00;;;19.70;95.20;;;;;;5095873;28;20485;-81
2023/10/13 00:55:22;;;;;;;9.05;2.70;;;19.70;95.20;;;;;;5095585;28;20024;-81
2023/10/13 00:57:57;;;;;;;9.38;3.08;;;19.60;95.20;;;;;;5096966;28;20025;-81
2023/10/13 01:00:28;;;;;;;5.03;2.63;;;19.60;95.50;;;;;;5094999;28;20034;-81
2023/10/13 01:03:04;;;;;;;7.18;2.90;;;19.60;95.30;;;;;;5095596;28;20039;-81
2023/10/13 01:05:31;;;;;;;9.93;2.80;;;19.50;95.30;;;;;;5096916;28;20047;-81
2023/10/13 01:08:01;;;;;;;18.38;3.40;;;19.60;95.40;;;;;;5096700;28;20058;-81
2023/10/13 01:10:27;;;;;;;7.50;2.80;;;19.50;95.40;;;;;;5095031;28;20034;-81
2023/10/13 01:12:54;;;;;;;7.15;2.83;;;19.40;95.50;;;;;;5096713;28;20110;-81
2023/10/13 01:15:29;;;;;;;9.18;2.95;;;19.40;95.50;;;;;;5095214;28;20028;-81
2023/10/13 01:18:10;;;;;;;8.77;2.78;;;19.40;95.50;;;;;;5096461;28;20024;-81
2023/10/13 01:20:43;;;;;;;7.25;2.53;;;19.40;95.40;;;;;;5086498;28;20109;-81
2023/10/13 01:23:18;;;;;;;6.22;2.60;;;19.30;95.50;;;;;;5084048;28;20033;-82
2023/10/13 01:25:45;;;;;;;6.10;2.55;;;19.30;95.30;;;;;;5091501;28;20028;-81
2023/10/13 01:28:16;;;;;;;8.25;2.80;;;19.30;95.40;;;;;;5076865;28;20024;-83
2023/10/13 01:30:49;;;;;;;5.67;3.00;;;19.30;95.50;;;;;;5095195;28;20114;-81
2023/10/13 01:33:16;;;;;;;5.85;2.83;;;19.30;95.50;;;;;;5076817;28;20257;-81
2023/10/13 01:35:47;;;;;;;4.78;2.90;;;19.30;95.50;;;;;;5077622;28;20048;-80
2023/10/13 01:38:13;;;;;;;8.38;2.60;;;19.30;95.40;;;;;;5086437;28;20042;-81
2023/10/13 01:40:39;;;;;;;8.35;2.80;;;19.30;95.40;;;;;;5091258;28;20551;-81
2023/10/13 01:43:10;;;;;;;7.93;2.88;;;19.30;95.30;;;;;;5090872;28;20111;-81
2023/10/13 01:45:49;;;;;;;;;;;19.30;95.40;;;;;;5096190;28;20043;-81
2023/10/13 01:48:17;;;;;;;4.22;2.25;;;19.30;95.00;;;;;;5095151;28;19963;-81
2023/10/13 01:50:47;;;;;;;8.57;2.80;;;19.20;94.90;;;;;;5094553;28;20123;-81
2023/10/13 01:53:17;;;;;;;6.13;2.50;;;19.20;94.90;;;;;;5094525;28;20077;-82
2023/10/13 01:55:43;;;;;;;6.88;2.47;;;19.20;94.90;;;;;;5094781;28;20096;-81
2023/10/13 01:58:16;;;;;;;7.75;2.30;;;19.20;94.90;;;;;;5094307;28;20066;-82
2023/10/13 02:00:49;;;;;;;5.10;2.47;;;19.20;94.90;;;;;;5094477;28;20063;-80
2023/10/13 02:03:16;;;;;;;7.45;2.35;;;19.20;94.80;;;;;;5095178;28;20024;-80
2023/10/13 02:05:46;;;;;;;8.35;2.90;;;19.20;94.70;;;;;;5094755;28;20026;-80
2023/10/13 02:08:24;;;;;;;3.67;2.03;;;19.20;94.60;;;;;;5093954;28;20530;-80
2023/10/13 02:10:57;;;;;;;7.57;2.38;;;19.20;94.50;;;;;;5094319;28;20032;-80
2023/10/13 02:13:25;;;;;;;5.05;2.60;;;19.20;94.20;;;;;;5094668;28;20028;-80
2023/10/13 02:16:02;;;;;;;7.15;2.47;;;19.20;94.10;;;;;;5095245;28;20457;-81
2023/10/13 02:18:27;;;;;;;9.57;2.63;;;19.20;93.90;;;;;;5093801;28;20031;-81
2023/10/13 02:20:55;;;;;;;11.25;2.42;;;19.20;93.70;;;;;;5094278;28;20028;-81
2023/10/13 02:23:29;;;;;;;6.57;2.20;;;19.30;93.60;;;;;;5094543;28;20048;-82
2023/10/13 02:26:12;;;;;;;5.10;2.40;;;19.30;93.60;;;;;;5094315;28;20055;-81
2023/10/13 02:28:38;;;;;;;5.28;2.38;;;19.30;93.50;;;;;;5093605;28;20077;-81
2023/10/13 02:31:04;;;;;;;3.97;1.92;;;19.30;93.50;;;;;;5093907;28;20028;-81
2023/10/13 02:33:31;;;;;;;6.28;2.45;;;19.30;93.50;;;;;;5093157;28;20031;-81
2023/10/13 02:35:57;;;;;;;5.35;2.35;;;19.20;93.50;;;;;;5093085;28;20488;-81
2023/10/13 02:41:11;;;;;;;8.75;2.45;;;19.20;93.50;;;;;;5094933;28;20415;-81
2023/10/13 02:43:38;;;;;;;9.25;2.65;;;19.20;93.50;;;;;;5076465;28;20159;-81
2023/10/13 02:46:04;;;;;;;5.50;2.33;;;19.20;93.50;;;;;;5094586;28;20469;-81
2023/10/13 02:48:39;;;;;;;10.60;2.38;;;19.20;93.60;;;;;;5092335;28;20054;-82
2023/10/13 02:51:15;;;;;;;7.25;2.47;;;19.20;93.60;;;;;;5094667;28;20114;-81
2023/10/13 02:53:41;;;;;;;4.78;2.38;;;19.20;93.70;;;;;;5093663;28;20078;-82
2023/10/13 02:56:07;;;;;;;7.57;2.55;;;19.20;93.70;;;;;;5094342;28;20461;-81
2023/10/13 02:58:39;;;;;;;8.60;2.33;;;19.20;93.60;;;;;;5092903;28;20032;-81
2023/10/13 03:01:17;;;;;;;5.32;2.15;;;19.20;93.60;;;;;;5093379;28;20055;-81
2023/10/13 03:03:58;;;;;;;6.13;2.50;;;19.20;93.60;;;;;;5093141;28;20035;-81
2023/10/13 03:06:32;;;;;;;7.45;2.50;;;19.10;93.60;;;;;;5093974;28;20024;-81
2023/10/13 03:09:00;;;;;;;10.68;2.55;;;19.20;93.70;;;;;;5093114;28;20024;-81
2023/10/13 03:11:32;;;;;;;7.63;2.58;;;19.10;93.60;;;;;;5093281;28;20024;-81
2023/10/13 03:13:57;;;;;;;7.00;2.67;;;19.10;93.60;;;;;;5092951;28;20020;-80
2023/10/13 03:16:23;;;;;;;6.60;2.63;;;19.10;93.60;;;;;;5093435;28;20036;-81
2023/10/13 03:18:55;;;;;;;6.32;2.58;;;19.10;93.60;;;;;;5092843;28;20025;-80
2023/10/13 03:21:29;;;;;;;5.72;2.30;;;19.20;93.60;;;;;;5092200;28;20028;-81
2023/10/13 03:23:56;;;;;;;9.00;2.45;;;19.10;93.60;;;;;;5093885;28;20028;-81
2023/10/13 03:26:21;;;;;;;5.45;1.90;;;19.10;93.60;;;;;;5093933;28;20034;-80
2023/10/13 03:28:52;;;;;;;7.85;2.17;;;19.10;93.50;;;;;;5093368;28;20050;-80
2023/10/13 03:31:27;;;;;;;5.00;2.42;;;19.10;93.60;;;;;;5092729;28;20024;-83
2023/10/13 03:33:59;;;;;;;6.82;2.17;;;19.10;93.60;;;;;;5092688;28;20030;-80
2023/10/13 03:39:11;;;;;;;6.07;2.17;;;19.10;93.70;;;;;;5093847;28;20051;-81
2023/10/13 03:41:38;;;;;;;8.27;2.38;;;19.00;93.70;;;;;;5092345;28;20024;-81
2023/10/13 03:44:17;;;;;;;7.90;2.15;;;19.00;93.80;;;;;;5093837;28;20032;-81
2023/10/13 03:46:45;;;;;;;10.15;2.35;;;19.00;93.90;;;;;;5092288;28;20036;-80
2023/10/13 03:49:12;;;;;;;5.53;2.53;;;19.00;93.90;;;;;;5092536;28;20119;-81
2023/10/13 03:51:41;;;;;;;4.15;1.95;;;19.00;94.00;;;;;;5092007;28;20434;-81
2023/10/13 03:54:09;;;;;;;10.10;2.08;;;18.90;94.10;;;;;;5092512;28;20031;-81
2023/10/13 03:56:38;;;;;;;7.80;2.40;;;18.90;94.00;;;;;;5091867;28;20056;-81
2023/10/13 03:59:06;;;;;;;8.75;2.78;;;18.90;94.10;;;;;;5094192;28;20031;-81
2023/10/13 04:01:43;;;;;;;7.07;2.40;;;18.90;94.00;;;;;;5096019;28;20115;-81
2023/10/13 04:17:40;;;;;;;9.30;2.92;;;18.80;94.10;;;;;;5087958;28;20076;-80
2023/10/13 04:28:33;;;;;;;7.53;2.60;;;18.60;94.60;;;;;;5097262;28;20036;-80
2023/10/13 04:31:06;;;;;;;4.43;2.55;;;18.50;94.80;;;;;;5096253;28;20028;-80
2023/10/13 04:33:43;;;;;;;8.25;3.05;;;18.50;94.90;;;;;;5095840;28;20487;-80
2023/10/13 04:36:21;;;;;;;6.88;2.45;;;18.50;95.10;;;;;;5096009;28;20075;-81
2023/10/13 04:38:57;;;;;;;5.50;2.55;;;18.40;95.10;;;;;;5096367;28;20032;-81
2023/10/13 04:41:39;;;;;;;7.63;2.42;;;18.40;95.30;;;;;;5095805;28;20028;-81
2023/10/13 04:44:47;;;;;;;7.07;2.90;;;18.40;95.30;;;;;;5096216;28;20081;-81
2023/10/13 04:50:10;;;;;;;8.32;2.50;;;18.30;95.30;;;;;;5097027;28;20043;-81
2023/10/13 04:55:09;;;;;;;8.02;2.90;;;18.20;95.50;;;;;;5096560;28;20028;-81
2023/10/13 04:57:34;;;;;;;6.93;2.65;;;18.20;95.70;;;;;;5095965;28;20024;-81
2023/10/13 06:29:34;;;;;;;8.95;2.75;;;16.90;98.50;;;;;;5074429;28;20043;-80
2023/10/13 06:32:01;;;;;;;6.22;2.70;;;16.90;98.40;;;;;;5081734;28;20024;-79
2023/10/13 06:34:45;;;;;;;6.18;2.90;;;17.00;98.30;;;;;;5084424;28;20048;-81
2023/10/13 06:37:30;;;;;;;10.93;3.33;;;17.00;98.10;;;;;;5078650;28;20464;-80
2023/10/13 06:39:59;;;;;;;4.88;2.40;;;17.00;97.80;;;;;;5084092;28;20162;-80
2023/10/13 06:42:28;;;;;;;8.70;2.97;;;17.10;97.80;;;;;;5091120;28;20032;-80
2023/10/13 06:44:55;;;;;;;9.95;2.90;;;17.10;97.90;;;;;;5094717;28;20124;-81
2023/10/13 06:47:21;;;;;;;12.95;2.80;;;17.10;97.90;;;;;;5093643;28;20104;-81
2023/10/13 06:49:51;;;;;;;5.45;3.10;;;17.20;97.80;;;;;;5092679;28;20031;-81
2023/10/13 06:52:17;;;;;;;6.90;2.80;;;17.20;97.60;;;;;;5092613;28;20492;-81
2023/10/13 06:54:43;;;;;;;6.10;3.20;;;17.20;97.60;;;;;;5092682;28;20035;-80
2023/10/13 06:57:14;;;;;;;7.97;3.17;;;17.20;97.70;;;;;;5093604;28;20042;-80
2023/10/13 06:59:42;;;;;;;5.15;2.65;;;17.20;97.80;;;;;;5092795;28;20077;-80
2023/10/13 07:02:09;;;;;;;10.20;2.97;;;17.20;98.00;;;;;;5093603;28;20032;-81
2023/10/13 07:04:41;;;;;;;6.80;2.60;;;17.20;98.10;;;;;;5093622;28;20062;-80
2023/10/13 07:07:10;;;;;;;9.82;3.10;;;17.20;98.10;;;;;;5094317;28;20469;-81
2023/10/13 07:12:06;;;;;;;6.60;2.75;;;17.40;98.10;;;;;;5092239;28;20046;-80
2023/10/13 07:14:36;;;;;;;10.48;3.50;;;17.40;97.90;;;;;;5093371;28;20031;-81
2023/10/13 07:17:07;;;;;;;7.85;2.90;;;17.40;97.80;;;;;;5093201;28;20036;-80
2023/10/13 07:19:33;;;;;;;6.57;2.85;;;17.50;97.60;;;;;;5093221;28;20020;-82
2023/10/13 07:22:03;;;;;;;6.63;3.00;;;17.60;97.50;;;;;;5091962;28;20541;-80
2023/10/13 07:24:32;;;;;;;6.95;2.80;;;17.60;97.30;;;;;;5092436;28;20471;-81
2023/10/13 07:27:05;;;;;;;6.45;2.65;;;17.70;97.30;;;;;;5092787;28;20024;-81
2023/10/13 07:29:35;;;;;;;10.05;2.83;;;17.80;96.90;;;;;;5092069;28;20035;-79
2023/10/13 07:32:04;;;;;;;7.05;2.47;;;17.80;96.50;;;;;;5080682;28;20473;-80
2023/10/13 07:34:32;;;;;;;6.90;2.70;;;17.90;96.30;;;;;;5071159;28;20048;-81
2023/10/13 07:37:01;;;;;;;7.10;2.97;;;18.00;96.20;;;;;;5072565;28;20025;-80
2023/10/13 07:39:33;;;;;;;7.07;2.42;;;18.00;96.00;;;;;;5072575;28;20031;-80
2023/10/13 07:42:14;;;;;;;8.80;2.55;;;18.10;96.00;;;;;;5073925;28;20037;-81
2023/10/13 07:44:45;;;;;;;9.38;2.83;;;18.10;95.90;;;;;;5071777;28;20068;-80
2023/10/13 07:47:11;;;;;;;7.50;2.40;;;18.20;95.80;;;;;;5072154;28;20484;-80
2023/10/13 07:49:39;;;;;;;6.07;2.78;;;18.30;95.80;;;;;;5071263;28;20024;-81
2023/10/13 07:54:59;;;;;;;5.70;2.20;;;18.30;95.60;;;;;;5072584;28;20031;-80
2023/10/13 07:57:31;;;;;;;6.57;2.50;;;18.40;95.60;;;;;;5073380;28;20016;-81
2023/10/13 08:00:25;;;;;;;7.10;2.60;;;18.50;95.50;;;;;;5073218;28;20463;-80
2023/10/13 08:03:07;;;;;;;10.63;2.67;;;18.50;95.30;;;;;;5071708;28;20115;-80
2023/10/13 08:08:18;;;;;;;7.80;2.88;;;18.60;95.00;;;;;;5081040;28;20072;-82
2023/10/13 08:10:45;;;;;;;8.00;2.65;;;18.60;95.00;;;;;;5081884;28;20029;-81
2023/10/13 08:13:12;;;;;;;4.82;2.38;;;18.70;95.00;;;;;;5084519;28;20024;-81
2023/10/13 08:15:47;;;;;;;7.72;2.42;;;18.70;95.00;;;;;;5084345;28;20036;-81
2023/10/13 08:18:30;;;;;;;9.73;2.40;;;18.70;95.00;;;;;;5087972;28;20094;-81
2023/10/13 08:21:03;;;;;;;9.95;2.80;;;18.80;95.00;;;;;;5091088;28;20062;-80
2023/10/13 08:26:29;;;;;;;5.68;2.53;;;18.90;94.90;;;;;;5088031;28;20020;-83
2023/10/13 08:29:49;;;;;;;6.90;2.33;;;18.90;95.00;;;;;;5087388;28;20372;-84
2023/10/13 08:32:22;;;;;;;8.38;2.50;;;19.00;95.00;;;;;;5094779;28;20028;-85
2023/10/13 08:40:21;;;;;;;9.25;2.10;;;19.20;94.60;;;;;;5101596;28;20449;-85
2023/10/13 08:48:07;;;;;;;5.15;2.10;;;19.50;92.60;;;;;;5107124;28;20028;-85
2023/10/13 08:56:31;;;;;;;5.47;2.03;;;19.90;91.90;;;;;;5076143;28;20217;-87
2023/10/13 08:59:05;;;;;;;5.15;1.77;;;19.90;92.20;;;;;;5112383;28;20145;-85
2023/10/13 09:07:08;;;;;;;6.63;2.30;;;20.20;91.90;;;;;;5096391;28;20028;-84
2023/10/13 09:12:13;;;;;;;5.82;2.15;;;20.40;91.70;;;;;;5096583;28;20107;-85
2023/10/13 09:14:56;;;;;;;8.00;2.05;;;20.40;91.50;;;;;;5103859;28;20074;-85
2023/10/13 09:25:35;;;;;;;7.40;2.13;;;20.90;90.60;;;;;;5096069;28;20364;-84
2023/10/13 09:28:18;;;;;;;4.57;1.83;;;21.00;90.40;;;;;;5095030;28;20052;-84
2023/10/13 09:30:48;;;;;;;5.03;1.92;;;21.10;90.20;;;;;;5094887;28;20028;-86
2023/10/13 09:33:40;;;;;;;11.18;1.70;;;21.20;88.60;;;;;;5095031;28;20437;-85
2023/10/13 09:36:07;;;;;;;6.97;2.00;;;21.40;87.20;;;;;;5094557;28;20084;-85
2023/10/13 09:38:34;;;;;;;5.22;2.05;;;21.50;86.30;;;;;;5111522;28;20027;-85
2023/10/13 09:41:17;;;;;;;5.50;1.80;;;21.60;85.40;;;;;;5098075;28;20035;-85
2023/10/13 09:43:43;;;;;;;9.45;1.90;;;21.70;84.70;;;;;;5105954;28;20036;-85
2023/10/13 09:46:17;;;;;;;4.35;1.50;;;21.90;84.70;;;;;;5105194;28;20031;-83
2023/10/13 09:48:47;;;;;;;5.55;2.22;;;21.90;83.80;;;;;;5094393;28;20029;-83
2023/10/13 09:51:14;;;;;;;7.23;2.00;;;22.00;83.90;;;;;;5100776;28;20058;-83
2023/10/13 09:53:53;;;;;;;9.05;2.03;;;22.10;84.30;;;;;;5096516;28;20456;-83
2023/10/13 09:56:26;;;;;;;5.50;2.17;;;22.10;83.50;;;;;;5094677;28;20042;-84
2023/10/13 09:59:34;;;;;;;5.93;1.60;;;22.20;82.80;;;;;;5095980;28;20024;-85
2023/10/13 10:02:08;;;;;;;8.90;1.83;;;22.30;82.80;;;;;;5054956;28;20051;-82
2023/10/13 10:04:42;;;;;;;10.77;1.70;;;22.40;82.70;;;;;;5074879;28;20025;-81
2023/10/13 10:07:08;;;;;;;5.95;2.00;;;22.50;82.40;;;;;;5088050;28;20123;-81
2023/10/13 10:09:34;;;;;;;6.35;2.00;;;22.60;81.80;;;;;;5076718;28;20028;-81
2023/10/13 10:12:28;;;;;;;8.23;1.92;;;22.70;80.90;;;;;;5080487;28;20456;-82
2023/10/13 10:15:01;;;;;;;7.80;1.73;;;22.80;79.70;;;;;;5079010;28;20376;-82
2023/10/13 10:17:29;;;;;;;5.03;1.63;;;23.00;78.90;;;;;;5075082;28;20031;-83
2023/10/13 10:19:56;;;;;;;8.63;1.90;;;23.10;78.40;;;;;;5095089;28;20054;-82
2023/10/13 10:22:36;;;;;;;6.50;1.63;;;23.30;78.50;;;;;;5100888;28;20112;-82
2023/10/13 10:25:25;;;;;;;9.20;2.13;;;23.30;77.40;;;;;;5110556;28;20026;-82
2023/10/13 10:28:07;;;;;;;7.72;1.95;;;23.40;77.60;;;;;;5103041;28;20469;-82
2023/10/13 10:30:35;;;;;;;4.03;1.50;;;23.60;77.30;;;;;;5098869;28;20063;-86
2023/10/13 10:33:06;;;;;;;6.10;1.92;;;23.60;77.30;;;;;;5110471;28;20111;-87
2023/10/13 10:35:33;;;;;;;4.88;1.50;;;23.70;76.00;;;;;;5101482;28;20039;-86
2023/10/13 10:38:23;;;;;;;4.30;2.30;;;23.80;75.00;;;;;;5102593;28;20028;-88
2023/10/13 10:40:59;;;;;;;9.80;2.03;;;24.00;74.90;;;;;;5093362;28;20039;-88
2023/10/13 10:43:26;;;;;;;10.65;2.00;;;24.10;74.90;;;;;;5101176;28;20026;-88
2023/10/13 10:45:52;;;;;;;10.85;2.17;;;24.10;74.80;;;;;;5103228;28;20492;-88
2023/10/13 10:48:19;;;;;;;6.78;2.13;;;24.30;73.30;;;;;;5093830;28;20035;-86
2023/10/13 10:50:54;;;;;;;5.00;1.80;;;24.30;72.20;;;;;;5110682;28;20027;-87
2023/10/13 10:53:33;;;;;;;6.05;2.65;;;24.40;72.10;;;;;;5104589;28;20015;-86
2023/10/13 10:58:56;;;;;;;9.02;1.95;;;24.40;73.50;;;;;;5110794;28;20085;-88
2023/10/13 11:01:23;;;;;;;7.73;1.77;;;24.40;73.70;;;;;;5099550;28;20077;-88
2023/10/13 11:06:57;;;;;;;6.43;2.03;;;24.50;73.90;;;;;;5088912;28;20372;-86
2023/10/13 11:12:06;;;;;;;4.32;1.63;;;24.50;74.10;;;;;;5114152;28;20118;-83
2023/10/13 11:14:32;;;;;;;6.57;2.08;;;24.50;74.20;;;;;;5097899;28;20024;-83
2023/10/13 11:17:13;;;;;;;5.10;1.80;;;24.50;74.30;;;;;;5108227;28;20244;-84
2023/10/13 11:19:40;;;;;;;4.18;1.20;;;24.60;74.00;;;;;;5104598;28;20020;-83
2023/10/13 11:22:32;;;;;;;5.40;1.63;;;24.60;74.00;;;;;;5099107;28;20035;-85
2023/10/13 11:25:09;;;;;;;5.13;1.80;;;24.70;73.70;;;;;;5094471;28;20032;-84
2023/10/13 11:30:14;;;;;;;6.65;1.85;;;24.80;72.60;;;;;;5106481;28;20368;-85
2023/10/13 11:32:42;;;;;;;5.32;1.80;;;24.80;71.90;;;;;;5096095;28;20437;-83
2023/10/13 11:35:20;;;;;;;5.25;2.10;;;24.90;71.50;;;;;;5096642;28;20051;-83
2023/10/13 11:37:55;;;;;;;3.40;1.90;;;24.90;71.00;;;;;;5096530;28;20056;-83
2023/10/13 11:40:43;;;;;;;7.43;2.00;;;25.00;71.10;;;;;;5101857;28;20016;-84
2023/10/13 11:43:13;;;;;;;6.80;1.80;;;25.10;71.10;;;;;;5073544;28;20032;-87
2023/10/13 11:45:52;;;;;;;6.38;1.90;;;25.10;70.90;;;;;;5095996;28;20028;-80
2023/10/13 11:48:23;;;;;;;8.23;1.92;;;25.20;70.20;;;;;;5087084;28;20029;-80
2023/10/13 11:50:49;;;;;;;5.00;1.60;;;25.40;70.70;;;;;;5082466;28;20032;-80
2023/10/13 11:53:14;;;;;;;8.90;2.25;;;25.60;70.30;;;;;;5096539;28;20083;-81
2023/10/13 11:55:40;;;;;;;4.70;2.05;;;25.60;70.40;;;;;;5104152;28;20019;-82
2023/10/13 11:58:06;;;;;;;8.93;1.63;;;25.70;70.20;;;;;;5113901;28;20032;-86
2023/10/13 12:06:32;;;;;;;6.07;2.17;;;25.70;70.00;;;;;;5104824;28;20518;-87
2023/10/13 12:11:44;;;;;;;3.63;1.95;;;25.80;70.10;;;;;;5100734;28;19907;-84
2023/10/13 12:14:21;;;;;;;5.90;2.10;;;26.00;69.10;;;;;;5100609;28;20029;-88
2023/10/13 12:16:53;;;;;;;10.07;1.80;;;26.30;68.50;;;;;;5109649;28;20460;-87
2023/10/13 12:19:28;;;;;;;5.13;1.85;;;26.50;68.40;;;;;;5113345;28;20028;-88
2023/10/13 12:21:55;;;;;;;8.27;1.98;;;26.80;67.40;;;;;;5107098;28;20024;-87
2023/10/13 12:27:02;;;;;;;;;;;27.20;66.70;;;;;;5099879;28;20023;-88
2023/10/13 12:29:28;;;;;;;5.55;1.80;;;27.40;65.80;;;;;;5111207;28;19904;-87
2023/10/13 12:53:53;;;;;;;5.25;1.98;;;30.40;59.20;;;;;;5096127;28;20483;-86
2023/10/13 12:56:26;;;;;;;5.35;2.00;;;30.90;58.70;;;;;;5109752;28;20114;-88
2023/10/13 12:58:52;;;;;;;7.55;2.08;;;31.20;58.10;;;;;;5116549;28;20047;-87
2023/10/13 13:01:32;;;;;;;8.05;1.80;;;31.60;57.50;;;;;;5111956;28;20038;-83
2023/10/13 13:03:58;;;;;;;8.10;1.92;;;32.00;56.50;;;;;;5087511;28;20082;-85
2023/10/13 13:06:29;;;;;;;8.50;1.70;;;32.20;55.80;;;;;;5089938;28;20465;-85
2023/10/13 13:08:59;;;;;;;7.18;1.60;;;32.30;54.80;;;;;;5089176;28;20027;-84
2023/10/13 13:11:29;;;;;;;4.47;1.60;;;32.00;54.70;;;;;;5089752;28;20093;-83
2023/10/13 13:13:55;;;;;;;6.25;1.85;;;32.50;55.70;;;;;;5095714;28;20561;-82
2023/10/13 13:16:30;;;;;;;6.43;2.00;;;33.10;53.50;;;;;;5090852;28;20107;-83
2023/10/13 13:18:56;;;;;;;4.13;1.80;;;33.50;53.20;;;;;;5078869;28;20039;-84
2023/10/13 13:21:24;;;;;;;6.55;1.88;;;34.00;52.70;;;;;;5082934;28;20110;-84
2023/10/13 13:23:51;;;;;;;8.90;2.25;;;34.60;51.70;;;;;;5094791;28;20468;-85
2023/10/13 13:26:17;;;;;;;4.80;1.98;;;34.70;50.20;;;;;;5094277;28;20036;-84
2023/10/13 13:28:50;;;;;;;3.83;1.50;;;34.60;49.60;;;;;;5107014;28;20038;-83
2023/10/13 13:31:16;;;;;;;3.92;1.95;;;34.80;49.10;;;;;;5093600;28;20749;-84
2023/10/13 13:33:43;;;;;;;3.83;1.80;;;34.50;48.60;;;;;;5091910;28;20032;-80
2023/10/13 13:36:15;;;;;;;9.85;2.35;;;34.30;48.50;;;;;;5095584;28;20044;-84
2023/10/13 13:38:40;;;;;;;4.93;1.60;;;34.10;49.20;;;;;;5094509;28;20035;-80
2023/10/13 13:41:16;;;;;;;7.20;2.00;;;34.20;49.10;;;;;;5107502;28;20031;-84
2023/10/13 13:43:54;;;;;;;8.13;1.85;;;34.40;48.40;;;;;;5085282;28;20024;-84
2023/10/13 13:46:27;;;;;;;6.80;1.90;;;34.50;48.30;;;;;;5104477;28;20106;-84
2023/10/13 13:49:00;;;;;;;6.20;1.90;;;34.50;48.30;;;;;;5095441;28;20107;-85
2023/10/13 13:51:27;;;;;;;7.47;1.83;;;34.40;49.30;;;;;;5109343;28;20044;-83
2023/10/13 13:53:57;;;;;;;4.47;1.30;;;34.00;48.20;;;;;;5095098;28;20027;-86
2023/10/13 13:56:28;;;;;;;6.55;2.22;;;33.60;48.30;;;;;;5108794;28;20376;-85
2023/10/13 13:58:55;;;;;;;7.80;2.20;;;33.20;48.90;;;;;;5093217;28;20028;-85
2023/10/13 14:01:21;;;;;;;5.25;1.80;;;33.10;49.30;;;;;;5102898;28;20050;-85
2023/10/13 14:03:52;;;;;;;5.38;2.15;;;32.90;48.90;;;;;;5110117;28;20591;-83
2023/10/13 14:06:20;;;;;;;7.00;1.88;;;32.60;49.40;;;;;;5101382;28;20031;-84
2023/10/13 14:08:48;;;;;;;5.03;1.65;;;32.50;49.70;;;;;;5106018;28;20024;-84
2023/10/13 14:14:03;;;;;;;6.25;1.92;;;31.80;49.90;;;;;;5103974;28;20130;-84
2023/10/13 14:16:29;;;;;;;5.20;1.80;;;31.30;50.70;;;;;;5108943;28;20027;-84
2023/10/13 14:18:55;;;;;;;6.25;1.90;;;30.90;50.80;;;;;;5096615;28;20051;-84
2023/10/13 14:21:24;;;;;;;7.20;1.90;;;30.60;51.40;;;;;;5108785;28;20024;-84
2023/10/13 14:23:53;;;;;;;5.72;1.85;;;30.30;51.70;;;;;;5082315;28;20032;-83
2023/10/13 14:26:26;;;;;;;11.95;2.00;;;30.00;51.90;;;;;;5107616;28;20165;-84
2023/10/13 14:29:00;;;;;;;5.07;1.70;;;29.80;52.00;;;;;;5096114;28;20023;-83
2023/10/13 14:31:27;;;;;;;7.00;2.00;;;29.70;52.20;;;;;;5094088;28;20051;-84
2023/10/13 14:33:53;;;;;;;4.22;2.20;;;29.60;52.30;;;;;;5082450;28;20020;-83
2023/10/13 14:36:19;;;;;;;5.20;1.83;;;29.40;52.00;;;;;;5103074;28;20031;-82
2023/10/13 14:38:49;;;;;;;5.97;1.98;;;29.40;52.40;;;;;;5097958;28;20036;-81
2023/10/13 14:41:18;;;;;;;5.20;1.75;;;29.30;52.40;;;;;;5098117;28;20034;-84
2023/10/13 14:43:49;;;;;;;8.02;2.00;;;29.10;52.90;;;;;;5085642;28;20032;-84
2023/10/13 14:46:15;;;;;;;;;;;28.90;53.10;;;;;;5097055;28;20106;-83
2023/10/13 14:48:40;;;;;;;5.03;1.90;;;28.90;53.30;;;;;;5090804;28;19999;-80
2023/10/13 14:51:12;;;;;;;7.85;2.50;;;28.80;53.60;;;;;;5092513;28;20126;-86
2023/10/13 14:53:43;;;;;;;6.95;2.25;;;28.70;53.80;;;;;;5091775;28;20452;-86
2023/10/13 14:56:09;;;;;;;7.18;2.17;;;28.60;53.90;;;;;;5093881;28;20028;-84
2023/10/13 14:58:35;;;;;;;5.55;2.30;;;28.50;54.20;;;;;;5085353;28;20123;-84
2023/10/13 15:01:00;;;;;;;10.27;1.73;;;28.40;54.00;;;;;;5093879;28;20452;-83
2023/10/13 15:03:27;;;;;;;4.80;2.00;;;28.30;54.10;;;;;;5094483;28;20024;-83
2023/10/13 15:05:55;;;;;;;4.45;1.80;;;28.30;54.40;;;;;;5095408;28;20031;-84
2023/10/13 15:08:20;;;;;;;6.38;1.90;;;28.20;54.60;;;;;;5103578;28;20049;-87
2023/10/13 15:10:46;;;;;;;7.03;1.80;;;28.20;54.40;;;;;;5093941;28;20122;-85
2023/10/13 15:13:12;;;;;;;3.25;1.58;;;28.20;54.70;;;;;;5092820;28;20039;-86
2023/10/13 15:15:39;;;;;;;3.78;1.60;;;28.10;54.30;;;;;;5107791;28;20023;-93
2023/10/13 15:18:05;;;;;;;7.35;1.60;;;28.00;54.00;;;;;;5092111;28;20036;-88
2023/10/13 15:20:30;;;;;;;4.13;1.52;;;28.00;53.60;;;;;;5095320;28;20038;-92
2023/10/13 15:22:59;;;;;;;6.03;1.90;;;28.00;53.80;;;;;;5096687;28;20115;-85
2023/10/13 15:25:31;;;;;;;5.38;1.75;;;28.00;53.30;;;;;;5095174;28;20449;-86
2023/10/13 15:28:05;;;;;;;3.95;1.33;;;27.90;53.30;;;;;;5094016;28;20028;-84
2023/10/13 15:33:32;;;;;;;4.80;1.52;;;27.80;52.90;;;;;;5067710;28;20036;-85
2023/10/13 15:35:57;;;;;;;5.63;2.00;;;27.80;52.70;;;;;;5094554;28;20109;-83
2023/10/13 15:38:24;;;;;;;7.13;1.83;;;27.70;52.90;;;;;;5111523;28;20030;-85
2023/10/13 15:40:54;;;;;;;3.70;1.42;;;27.70;53.20;;;;;;5115726;28;20031;-87
2023/10/13 15:43:20;;;;;;;6.95;1.50;;;27.70;52.80;;;;;;5105574;28;20091;-86
2023/10/13 15:45:46;;;;;;;5.60;1.50;;;27.60;52.70;;;;;;5102609;28;20477;-83
2023/10/13 15:48:11;;;;;;;9.43;1.80;;;27.60;52.70;;;;;;5103379;28;20389;-82
2023/10/13 15:50:40;;;;;;;8.25;1.42;;;27.60;52.40;;;;;;5093084;28;20020;-85
2023/10/13 15:53:07;;;;;;;3.97;1.33;;;27.50;52.80;;;;;;5097132;28;20028;-87
2023/10/13 15:55:37;;;;;;;3.40;1.73;;;27.40;53.20;;;;;;5102879;28;20028;-84
2023/10/13 15:58:07;;;;;;;3.75;1.45;;;27.40;52.90;;;;;;5117356;28;20030;-87
2023/10/13 16:00:35;;;;;;;7.05;1.70;;;27.30;52.80;;;;;;5108531;28;20059;-86
2023/10/13 16:03:00;;;;;;;3.85;1.45;;;27.30;52.80;;;;;;5098072;28;20023;-81
2023/10/13 16:05:34;;;;;;;5.60;1.40;;;27.20;53.00;;;;;;5098975;28;20052;-85
2023/10/13 16:08:00;;;;;;;6.00;1.50;;;27.20;53.40;;;;;;5104129;28;20245;-85
2023/10/13 16:10:26;;;;;;;2.97;1.40;;;27.00;53.40;;;;;;5103259;28;20020;-86
2023/10/13 16:12:53;;;;;;;4.85;1.52;;;27.00;53.90;;;;;;5106249;28;20115;-84
2023/10/13 16:15:21;;;;;;;3.95;1.55;;;26.90;53.80;;;;;;5095740;28;20050;-84
2023/10/13 16:17:47;;;;;;;5.72;1.70;;;26.80;53.90;;;;;;5093657;28;20040;-85
2023/10/13 16:20:16;;;;;;;4.50;1.23;;;26.80;54.10;;;;;;5092517;28;20369;-82
2023/10/13 16:22:45;;;;;;;8.18;2.08;;;26.70;54.10;;;;;;5095828;28;20077;-79
2023/10/13 16:25:15;;;;;;;2.90;1.40;;;26.60;54.10;;;;;;5106916;28;20484;-85
2023/10/13 16:27:42;;;;;;;8.10;1.70;;;26.60;54.20;;;;;;5101721;28;20019;-79
2023/10/13 16:30:10;;;;;;;3.70;1.40;;;26.50;54.30;;;;;;5111410;28;20035;-84
2023/10/13 16:32:36;;;;;;;7.85;1.60;;;26.50;54.50;;;;;;5088187;28;20481;-83
2023/10/13 16:35:10;;;;;;;9.13;2.50;;;26.30;54.40;;;;;;5092156;28;20067;-84
2023/10/13 16:37:36;;;;;;;5.85;1.83;;;26.30;54.80;;;;;;5087809;28;20028;-83
2023/10/13 16:40:04;;;;;;;4.78;1.77;;;26.20;54.80;;;;;;5103369;28;20095;-85
2023/10/13 16:42:34;;;;;;;4.05;1.83;;;26.10;55.10;;;;;;5108308;28;20038;-84
2023/10/13 16:45:14;;;;;;;3.97;1.45;;;26.10;55.30;;;;;;5094418;28;20071;-84
2023/10/13 16:47:42;;;;;;;5.60;2.00;;;26.00;55.50;;;;;;5089584;28;20027;-79
2023/10/13 16:50:09;;;;;;;5.70;1.55;;;25.90;55.50;;;;;;5094398;28;20031;-81